sensor_id;sensor_type;location;lat;lon;timestamp;P1;durP1;ratioP1;P2;durP2;ratioP2
73557;SDS011;61829;53.286;10.434;2024-03-23T00:55:22;14.93;;;3.00;;
73557;SDS011;61829;53.286;10.434;2024-03-23T00:58:06;15.75;;;2.78;;
73557;SDS011;61829;53.286;10.434;2024-03-23T01:00:51;19.85;;;2.88;;
73557;SDS011;61829;53.286;10.434;2024-03-23T01:03:36;19.17;;;2.83;;
73557;SDS011;61829;53.286;10.434;2024-03-23T01:06:21;13.45;;;2.90;;
73557;SDS011;61829;53.286;10.434;2024-03-23T01:09:05;8.57;;;2.30;;
73557;SDS011;61829;53.286;10.434;2024-03-23T01:11:50;15.65;;;2.85;;
73557;SDS011;61829;53.286;10.434;2024-03-23T01:14:38;8.50;;;2.35;;
73557;SDS011;61829;53.286;10.434;2024-03-23T01:17:23;14.15;;;2.90;;
73557;SDS011;61829;53.286;10.434;2024-03-23T01:20:07;15.13;;;3.13;;
73557;SDS011;61829;53.286;10.434;2024-03-23T01:22:52;15.63;;;2.97;;
73557;SDS011;61829;53.286;10.434;2024-03-23T01:25:37;13.48;;;2.88;;
73557;SDS011;61829;53.286;10.434;2024-03-23T01:28:22;20.63;;;3.80;;
73557;SDS011;61829;53.286;10.434;2024-03-23T01:31:07;11.50;;;2.80;;
73557;SDS011;61829;53.286;10.434;2024-03-23T01:33:52;26.30;;;3.50;;
73557;SDS011;61829;53.286;10.434;2024-03-23T01:36:36;16.85;;;2.63;;
73557;SDS011;61829;53.286;10.434;2024-03-23T01:39:21;17.52;;;3.63;;
73557;SDS011;61829;53.286;10.434;2024-03-23T01:42:05;11.52;;;3.17;;
73557;SDS011;61829;53.286;10.434;2024-03-23T01:45:01;17.45;;;2.67;;
73557;SDS011;61829;53.286;10.434;2024-03-23T01:47:45;16.33;;;2.88;;
73557;SDS011;61829;53.286;10.434;2024-03-23T01:50:30;11.93;;;2.63;;
73557;SDS011;61829;53.286;10.434;2024-03-23T01:53:18;17.27;;;2.83;;
73557;SDS011;61829;53.286;10.434;2024-03-23T01:56:05;15.05;;;2.45;;
73557;SDS011;61829;53.286;10.434;2024-03-23T01:58:50;17.27;;;3.35;;
73557;SDS011;61829;53.286;10.434;2024-03-23T02:01:35;15.32;;;2.78;;
73557;SDS011;61829;53.286;10.434;2024-03-23T02:04:22;13.63;;;2.78;;
73557;SDS011;61829;53.286;10.434;2024-03-23T02:07:07;15.43;;;2.70;;
73557;SDS011;61829;53.286;10.434;2024-03-23T02:09:51;11.85;;;2.50;;
73557;SDS011;61829;53.286;10.434;2024-03-23T02:12:37;11.65;;;2.63;;
73557;SDS011;61829;53.286;10.434;2024-03-23T02:15:21;14.98;;;2.50;;
73557;SDS011;61829;53.286;10.434;2024-03-23T02:18:09;14.85;;;3.05;;
73557;SDS011;61829;53.286;10.434;2024-03-23T02:20:53;13.18;;;3.35;;
73557;SDS011;61829;53.286;10.434;2024-03-23T02:23:38;20.02;;;3.00;;
73557;SDS011;61829;53.286;10.434;2024-03-23T02:26:22;13.90;;;2.50;;
73557;SDS011;61829;53.286;10.434;2024-03-23T02:29:06;19.33;;;3.20;;
73557;SDS011;61829;53.286;10.434;2024-03-23T02:32:11;17.85;;;3.47;;
73557;SDS011;61829;53.286;10.434;2024-03-23T02:35:01;13.93;;;2.67;;
73557;SDS011;61829;53.286;10.434;2024-03-23T02:37:46;14.55;;;2.50;;
73557;SDS011;61829;53.286;10.434;2024-03-23T02:40:32;18.88;;;2.72;;
73557;SDS011;61829;53.286;10.434;2024-03-23T02:43:17;18.80;;;2.83;;
73557;SDS011;61829;53.286;10.434;2024-03-23T02:46:01;14.45;;;2.58;;
73557;SDS011;61829;53.286;10.434;2024-03-23T02:48:48;14.27;;;2.83;;
73557;SDS011;61829;53.286;10.434;2024-03-23T02:51:33;19.70;;;3.08;;
73557;SDS011;61829;53.286;10.434;2024-03-23T02:54:17;16.77;;;2.88;;
73557;SDS011;61829;53.286;10.434;2024-03-23T02:57:02;13.65;;;2.70;;
73557;SDS011;61829;53.286;10.434;2024-03-23T02:59:46;15.10;;;2.95;;
73557;SDS011;61829;53.286;10.434;2024-03-23T03:02:31;10.80;;;2.60;;
73557;SDS011;61829;53.286;10.434;2024-03-23T03:05:16;12.15;;;2.67;;
73557;SDS011;61829;53.286;10.434;2024-03-23T03:08:01;16.45;;;3.22;;
73557;SDS011;61829;53.286;10.434;2024-03-23T03:10:45;16.95;;;2.95;;
73557;SDS011;61829;53.286;10.434;2024-03-23T03:13:30;12.85;;;3.08;;
73557;SDS011;61829;53.286;10.434;2024-03-23T03:16:14;17.95;;;2.97;;
73557;SDS011;61829;53.286;10.434;2024-03-23T03:18:58;11.98;;;2.90;;
73557;SDS011;61829;53.286;10.434;2024-03-23T03:21:43;14.35;;;2.17;;
73557;SDS011;61829;53.286;10.434;2024-03-23T03:24:28;13.73;;;2.33;;
73557;SDS011;61829;53.286;10.434;2024-03-23T03:27:12;13.20;;;3.58;;
73557;SDS011;61829;53.286;10.434;2024-03-23T03:29:56;17.27;;;2.97;;
73557;SDS011;61829;53.286;10.434;2024-03-23T03:32:41;11.85;;;3.00;;
73557;SDS011;61829;53.286;10.434;2024-03-23T03:35:26;14.93;;;2.30;;
73557;SDS011;61829;53.286;10.434;2024-03-23T03:38:11;17.63;;;2.97;;
73557;SDS011;61829;53.286;10.434;2024-03-23T03:40:56;15.02;;;3.17;;
73557;SDS011;61829;53.286;10.434;2024-03-23T03:43:41;15.07;;;3.47;;
73557;SDS011;61829;53.286;10.434;2024-03-23T03:49:53;20.85;;;2.75;;
73557;SDS011;61829;53.286;10.434;2024-03-23T03:52:38;15.20;;;2.50;;
73557;SDS011;61829;53.286;10.434;2024-03-23T03:55:22;17.88;;;2.45;;
73557;SDS011;61829;53.286;10.434;2024-03-23T03:58:07;16.75;;;2.80;;
73557;SDS011;61829;53.286;10.434;2024-03-23T04:00:53;20.13;;;2.92;;
73557;SDS011;61829;53.286;10.434;2024-03-23T04:03:38;22.25;;;2.45;;
73557;SDS011;61829;53.286;10.434;2024-03-23T04:06:27;14.73;;;3.00;;
73557;SDS011;61829;53.286;10.434;2024-03-23T04:09:12;16.02;;;2.80;;
73557;SDS011;61829;53.286;10.434;2024-03-23T04:11:56;18.98;;;2.85;;
73557;SDS011;61829;53.286;10.434;2024-03-23T04:14:41;15.85;;;3.13;;
73557;SDS011;61829;53.286;10.434;2024-03-23T04:17:26;10.95;;;2.38;;
73557;SDS011;61829;53.286;10.434;2024-03-23T04:20:34;11.57;;;2.45;;
73557;SDS011;61829;53.286;10.434;2024-03-23T04:23:19;10.88;;;2.33;;
73557;SDS011;61829;53.286;10.434;2024-03-23T04:26:23;9.90;;;2.50;;
73557;SDS011;61829;53.286;10.434;2024-03-23T04:29:08;11.30;;;2.50;;
73557;SDS011;61829;53.286;10.434;2024-03-23T04:31:52;13.98;;;2.97;;
73557;SDS011;61829;53.286;10.434;2024-03-23T04:34:37;18.00;;;2.65;;
73557;SDS011;61829;53.286;10.434;2024-03-23T04:37:22;18.13;;;2.55;;
73557;SDS011;61829;53.286;10.434;2024-03-23T04:40:07;14.65;;;2.47;;
73557;SDS011;61829;53.286;10.434;2024-03-23T04:42:52;21.75;;;3.45;;
73557;SDS011;61829;53.286;10.434;2024-03-23T04:45:37;15.93;;;2.53;;
73557;SDS011;61829;53.286;10.434;2024-03-23T04:48:21;19.48;;;3.20;;
73557;SDS011;61829;53.286;10.434;2024-03-23T04:51:22;19.52;;;3.50;;
73557;SDS011;61829;53.286;10.434;2024-03-23T04:54:26;20.70;;;2.72;;
73557;SDS011;61829;53.286;10.434;2024-03-23T04:57:13;10.25;;;2.25;;
73557;SDS011;61829;53.286;10.434;2024-03-23T04:59:57;18.05;;;2.90;;
73557;SDS011;61829;53.286;10.434;2024-03-23T05:02:43;15.18;;;2.60;;
73557;SDS011;61829;53.286;10.434;2024-03-23T05:05:28;17.10;;;3.45;;
73557;SDS011;61829;53.286;10.434;2024-03-23T05:08:13;16.75;;;2.70;;
73557;SDS011;61829;53.286;10.434;2024-03-23T05:10:57;14.48;;;2.47;;
73557;SDS011;61829;53.286;10.434;2024-03-23T05:13:42;13.68;;;2.95;;
73557;SDS011;61829;53.286;10.434;2024-03-23T05:16:27;13.50;;;3.05;;
73557;SDS011;61829;53.286;10.434;2024-03-23T05:19:12;18.80;;;3.10;;
73557;SDS011;61829;53.286;10.434;2024-03-23T05:21:57;13.98;;;3.25;;
73557;SDS011;61829;53.286;10.434;2024-03-23T05:24:41;12.50;;;3.15;;
73557;SDS011;61829;53.286;10.434;2024-03-23T05:30:58;9.20;;;2.67;;
73557;SDS011;61829;53.286;10.434;2024-03-23T05:33:42;15.35;;;3.03;;
73557;SDS011;61829;53.286;10.434;2024-03-23T05:36:27;18.05;;;3.05;;
73557;SDS011;61829;53.286;10.434;2024-03-23T05:39:11;16.30;;;3.00;;
73557;SDS011;61829;53.286;10.434;2024-03-23T05:41:56;10.57;;;2.60;;
73557;SDS011;61829;53.286;10.434;2024-03-23T05:44:40;18.60;;;3.30;;
73557;SDS011;61829;53.286;10.434;2024-03-23T05:47:24;13.70;;;2.80;;
73557;SDS011;61829;53.286;10.434;2024-03-23T05:50:10;14.77;;;2.95;;
73557;SDS011;61829;53.286;10.434;2024-03-23T05:52:57;8.85;;;3.00;;
73557;SDS011;61829;53.286;10.434;2024-03-23T05:55:41;23.92;;;3.75;;
73557;SDS011;61829;53.286;10.434;2024-03-23T05:58:26;23.17;;;3.20;;
73557;SDS011;61829;53.286;10.434;2024-03-23T06:01:11;14.40;;;2.30;;
73557;SDS011;61829;53.286;10.434;2024-03-23T06:03:57;16.27;;;3.28;;
73557;SDS011;61829;53.286;10.434;2024-03-23T06:06:41;10.73;;;2.65;;
73557;SDS011;61829;53.286;10.434;2024-03-23T06:09:26;12.88;;;2.83;;
73557;SDS011;61829;53.286;10.434;2024-03-23T06:12:10;20.13;;;2.92;;
73557;SDS011;61829;53.286;10.434;2024-03-23T06:14:55;16.08;;;2.95;;
73557;SDS011;61829;53.286;10.434;2024-03-23T06:17:39;23.50;;;3.55;;
73557;SDS011;61829;53.286;10.434;2024-03-23T06:20:24;15.23;;;2.33;;
73557;SDS011;61829;53.286;10.434;2024-03-23T06:23:09;15.88;;;2.78;;
73557;SDS011;61829;53.286;10.434;2024-03-23T06:25:53;15.05;;;2.83;;
73557;SDS011;61829;53.286;10.434;2024-03-23T06:28:38;18.88;;;2.90;;
73557;SDS011;61829;53.286;10.434;2024-03-23T06:31:22;13.70;;;2.72;;
73557;SDS011;61829;53.286;10.434;2024-03-23T06:34:07;13.90;;;2.78;;
73557;SDS011;61829;53.286;10.434;2024-03-23T06:36:51;14.35;;;2.17;;
73557;SDS011;61829;53.286;10.434;2024-03-23T06:39:40;17.13;;;2.75;;
73557;SDS011;61829;53.286;10.434;2024-03-23T06:42:30;19.50;;;3.08;;
73557;SDS011;61829;53.286;10.434;2024-03-23T06:45:14;14.50;;;2.70;;
73557;SDS011;61829;53.286;10.434;2024-03-23T06:48:00;15.38;;;2.85;;
73557;SDS011;61829;53.286;10.434;2024-03-23T06:50:44;14.13;;;2.75;;
73557;SDS011;61829;53.286;10.434;2024-03-23T06:53:29;20.05;;;2.70;;
73557;SDS011;61829;53.286;10.434;2024-03-23T06:56:13;16.17;;;3.03;;
73557;SDS011;61829;53.286;10.434;2024-03-23T06:58:58;17.15;;;2.78;;
73557;SDS011;61829;53.286;10.434;2024-03-23T07:01:43;10.88;;;2.60;;
73557;SDS011;61829;53.286;10.434;2024-03-23T07:04:27;16.58;;;2.92;;
73557;SDS011;61829;53.286;10.434;2024-03-23T07:07:11;20.55;;;2.75;;
73557;SDS011;61829;53.286;10.434;2024-03-23T07:09:56;13.95;;;2.58;;
73557;SDS011;61829;53.286;10.434;2024-03-23T07:12:41;14.68;;;3.20;;
73557;SDS011;61829;53.286;10.434;2024-03-23T07:15:26;16.27;;;2.70;;
73557;SDS011;61829;53.286;10.434;2024-03-23T07:18:11;13.35;;;2.40;;
73557;SDS011;61829;53.286;10.434;2024-03-23T07:20:55;16.60;;;2.70;;
73557;SDS011;61829;53.286;10.434;2024-03-23T07:23:44;9.77;;;2.42;;
73557;SDS011;61829;53.286;10.434;2024-03-23T07:26:31;12.02;;;2.40;;
73557;SDS011;61829;53.286;10.434;2024-03-23T07:29:15;13.82;;;2.92;;
73557;SDS011;61829;53.286;10.434;2024-03-23T07:32:00;15.80;;;2.80;;
73557;SDS011;61829;53.286;10.434;2024-03-23T07:34:45;11.88;;;2.65;;
73557;SDS011;61829;53.286;10.434;2024-03-23T07:37:29;9.25;;;2.22;;
73557;SDS011;61829;53.286;10.434;2024-03-23T07:40:13;14.20;;;2.75;;
73557;SDS011;61829;53.286;10.434;2024-03-23T07:42:58;17.83;;;3.08;;
73557;SDS011;61829;53.286;10.434;2024-03-23T07:45:42;14.05;;;2.83;;
73557;SDS011;61829;53.286;10.434;2024-03-23T07:48:27;14.55;;;2.83;;
73557;SDS011;61829;53.286;10.434;2024-03-23T07:51:19;15.45;;;2.67;;
73557;SDS011;61829;53.286;10.434;2024-03-23T07:54:05;20.38;;;2.97;;
73557;SDS011;61829;53.286;10.434;2024-03-23T07:56:49;15.90;;;2.78;;
73557;SDS011;61829;53.286;10.434;2024-03-23T07:59:34;16.25;;;3.15;;
73557;SDS011;61829;53.286;10.434;2024-03-23T08:02:18;16.40;;;3.85;;
73557;SDS011;61829;53.286;10.434;2024-03-23T08:05:02;13.18;;;3.00;;
73557;SDS011;61829;53.286;10.434;2024-03-23T08:07:50;16.63;;;3.38;;
73557;SDS011;61829;53.286;10.434;2024-03-23T08:10:34;13.40;;;2.60;;
73557;SDS011;61829;53.286;10.434;2024-03-23T08:13:19;15.07;;;2.53;;
73557;SDS011;61829;53.286;10.434;2024-03-23T08:20:04;13.38;;;2.50;;
73557;SDS011;61829;53.286;10.434;2024-03-23T08:22:49;14.95;;;2.60;;
73557;SDS011;61829;53.286;10.434;2024-03-23T08:25:34;14.93;;;2.95;;
73557;SDS011;61829;53.286;10.434;2024-03-23T08:28:19;16.73;;;3.00;;
73557;SDS011;61829;53.286;10.434;2024-03-23T08:31:06;12.27;;;2.42;;
73557;SDS011;61829;53.286;10.434;2024-03-23T08:33:52;11.60;;;2.63;;
73557;SDS011;61829;53.286;10.434;2024-03-23T08:36:37;13.30;;;2.00;;
73557;SDS011;61829;53.286;10.434;2024-03-23T08:39:21;11.45;;;2.55;;
73557;SDS011;61829;53.286;10.434;2024-03-23T08:42:06;11.35;;;2.30;;
73557;SDS011;61829;53.286;10.434;2024-03-23T08:44:50;13.27;;;2.53;;
73557;SDS011;61829;53.286;10.434;2024-03-23T08:47:35;10.88;;;2.63;;
73557;SDS011;61829;53.286;10.434;2024-03-23T08:50:20;6.95;;;2.00;;
73557;SDS011;61829;53.286;10.434;2024-03-23T08:55:53;12.07;;;1.90;;
73557;SDS011;61829;53.286;10.434;2024-03-23T08:58:38;11.00;;;2.45;;
73557;SDS011;61829;53.286;10.434;2024-03-23T09:04:08;10.05;;;2.58;;
73557;SDS011;61829;53.286;10.434;2024-03-23T09:06:52;12.55;;;2.10;;
73557;SDS011;61829;53.286;10.434;2024-03-23T09:09:40;11.93;;;2.53;;
73557;SDS011;61829;53.286;10.434;2024-03-23T09:12:24;9.63;;;1.85;;
73557;SDS011;61829;53.286;10.434;2024-03-23T09:15:08;10.20;;;2.40;;
73557;SDS011;61829;53.286;10.434;2024-03-23T09:17:54;8.20;;;2.65;;
73557;SDS011;61829;53.286;10.434;2024-03-23T09:20:38;11.73;;;2.08;;
73557;SDS011;61829;53.286;10.434;2024-03-23T09:23:23;10.82;;;1.90;;
73557;SDS011;61829;53.286;10.434;2024-03-23T09:26:07;7.68;;;1.70;;
73557;SDS011;61829;53.286;10.434;2024-03-23T09:28:52;10.07;;;2.22;;
73557;SDS011;61829;53.286;10.434;2024-03-23T09:35:19;6.97;;;1.40;;
73557;SDS011;61829;53.286;10.434;2024-03-23T09:38:04;6.32;;;1.70;;
73557;SDS011;61829;53.286;10.434;2024-03-23T09:40:52;9.68;;;2.00;;
73557;SDS011;61829;53.286;10.434;2024-03-23T09:43:42;8.85;;;2.28;;
73557;SDS011;61829;53.286;10.434;2024-03-23T09:46:27;9.70;;;1.85;;
73557;SDS011;61829;53.286;10.434;2024-03-23T09:49:18;8.93;;;1.90;;
73557;SDS011;61829;53.286;10.434;2024-03-23T09:52:04;11.07;;;2.60;;
73557;SDS011;61829;53.286;10.434;2024-03-23T09:54:48;8.05;;;1.90;;
73557;SDS011;61829;53.286;10.434;2024-03-23T09:57:33;11.35;;;2.28;;
73557;SDS011;61829;53.286;10.434;2024-03-23T10:00:19;11.85;;;2.85;;
73557;SDS011;61829;53.286;10.434;2024-03-23T10:03:04;8.63;;;1.85;;
73557;SDS011;61829;53.286;10.434;2024-03-23T10:06:00;8.35;;;1.90;;
73557;SDS011;61829;53.286;10.434;2024-03-23T10:08:49;9.68;;;1.95;;
73557;SDS011;61829;53.286;10.434;2024-03-23T10:11:34;11.68;;;1.88;;
73557;SDS011;61829;53.286;10.434;2024-03-23T10:14:31;8.90;;;1.48;;
73557;SDS011;61829;53.286;10.434;2024-03-23T10:17:20;8.77;;;1.80;;
73557;SDS011;61829;53.286;10.434;2024-03-23T10:20:09;5.50;;;1.52;;
73557;SDS011;61829;53.286;10.434;2024-03-23T10:22:55;10.10;;;1.70;;
73557;SDS011;61829;53.286;10.434;2024-03-23T10:25:40;9.43;;;1.95;;
73557;SDS011;61829;53.286;10.434;2024-03-23T10:28:25;10.13;;;1.85;;
73557;SDS011;61829;53.286;10.434;2024-03-23T10:31:11;6.82;;;1.38;;
73557;SDS011;61829;53.286;10.434;2024-03-23T10:33:56;7.28;;;1.48;;
73557;SDS011;61829;53.286;10.434;2024-03-23T10:36:41;9.77;;;2.00;;
73557;SDS011;61829;53.286;10.434;2024-03-23T10:43:28;7.38;;;1.58;;
73557;SDS011;61829;53.286;10.434;2024-03-23T10:46:16;7.22;;;1.65;;
73557;SDS011;61829;53.286;10.434;2024-03-23T10:49:01;7.60;;;1.48;;
73557;SDS011;61829;53.286;10.434;2024-03-23T10:51:46;5.60;;;1.45;;
73557;SDS011;61829;53.286;10.434;2024-03-23T10:54:31;5.53;;;1.40;;
73557;SDS011;61829;53.286;10.434;2024-03-23T10:57:18;9.35;;;1.83;;
73557;SDS011;61829;53.286;10.434;2024-03-23T11:00:07;6.78;;;1.42;;
73557;SDS011;61829;53.286;10.434;2024-03-23T11:02:53;5.28;;;1.38;;
73557;SDS011;61829;53.286;10.434;2024-03-23T11:05:37;6.05;;;1.67;;
73557;SDS011;61829;53.286;10.434;2024-03-23T11:08:29;4.82;;;1.10;;
73557;SDS011;61829;53.286;10.434;2024-03-23T11:11:20;7.50;;;1.70;;
73557;SDS011;61829;53.286;10.434;2024-03-23T11:14:12;5.55;;;1.75;;
73557;SDS011;61829;53.286;10.434;2024-03-23T11:17:10;7.95;;;1.60;;
73557;SDS011;61829;53.286;10.434;2024-03-23T11:19:56;4.15;;;1.27;;
73557;SDS011;61829;53.286;10.434;2024-03-23T11:25:27;4.97;;;1.05;;
73557;SDS011;61829;53.286;10.434;2024-03-23T11:28:12;5.25;;;1.05;;
73557;SDS011;61829;53.286;10.434;2024-03-23T11:30:57;4.47;;;1.20;;
73557;SDS011;61829;53.286;10.434;2024-03-23T11:33:42;5.82;;;1.00;;
73557;SDS011;61829;53.286;10.434;2024-03-23T11:36:26;6.63;;;1.40;;
73557;SDS011;61829;53.286;10.434;2024-03-23T11:39:11;5.97;;;1.50;;
73557;SDS011;61829;53.286;10.434;2024-03-23T11:42:00;5.13;;;1.48;;
73557;SDS011;61829;53.286;10.434;2024-03-23T11:44:45;8.90;;;1.75;;
73557;SDS011;61829;53.286;10.434;2024-03-23T11:47:31;6.85;;;1.67;;
73557;SDS011;61829;53.286;10.434;2024-03-23T11:50:21;4.55;;;1.60;;
73557;SDS011;61829;53.286;10.434;2024-03-23T11:53:07;8.10;;;1.55;;
73557;SDS011;61829;53.286;10.434;2024-03-23T11:56:21;3.25;;;1.13;;
73557;SDS011;61829;53.286;10.434;2024-03-23T11:59:08;6.18;;;1.60;;
73557;SDS011;61829;53.286;10.434;2024-03-23T12:01:53;4.18;;;1.33;;
73557;SDS011;61829;53.286;10.434;2024-03-23T12:07:24;4.15;;;1.75;;
73557;SDS011;61829;53.286;10.434;2024-03-23T12:10:08;6.93;;;1.67;;
73557;SDS011;61829;53.286;10.434;2024-03-23T12:12:59;6.15;;;1.73;;
73557;SDS011;61829;53.286;10.434;2024-03-23T12:15:45;4.15;;;1.40;;
73557;SDS011;61829;53.286;10.434;2024-03-23T12:18:30;4.93;;;1.35;;
73557;SDS011;61829;53.286;10.434;2024-03-23T12:21:15;3.97;;;1.58;;
73557;SDS011;61829;53.286;10.434;2024-03-23T12:24:00;8.38;;;1.52;;
73557;SDS011;61829;53.286;10.434;2024-03-23T12:26:45;4.10;;;1.60;;
73557;SDS011;61829;53.286;10.434;2024-03-23T12:29:32;6.35;;;1.45;;
73557;SDS011;61829;53.286;10.434;2024-03-23T12:32:16;3.67;;;1.20;;
73557;SDS011;61829;53.286;10.434;2024-03-23T12:35:04;6.18;;;1.23;;
73557;SDS011;61829;53.286;10.434;2024-03-23T12:37:48;6.95;;;1.55;;
73557;SDS011;61829;53.286;10.434;2024-03-23T12:40:33;5.72;;;1.30;;
73557;SDS011;61829;53.286;10.434;2024-03-23T12:43:17;3.70;;;1.17;;
73557;SDS011;61829;53.286;10.434;2024-03-23T12:46:02;4.43;;;1.45;;
73557;SDS011;61829;53.286;10.434;2024-03-23T12:48:47;5.07;;;1.40;;
73557;SDS011;61829;53.286;10.434;2024-03-23T12:51:32;5.93;;;1.50;;
73557;SDS011;61829;53.286;10.434;2024-03-23T12:54:17;4.88;;;1.67;;
73557;SDS011;61829;53.286;10.434;2024-03-23T12:57:02;5.53;;;1.48;;
73557;SDS011;61829;53.286;10.434;2024-03-23T12:59:46;4.90;;;1.50;;
73557;SDS011;61829;53.286;10.434;2024-03-23T13:02:35;4.88;;;1.63;;
73557;SDS011;61829;53.286;10.434;2024-03-23T13:05:19;5.28;;;1.45;;
73557;SDS011;61829;53.286;10.434;2024-03-23T13:08:04;6.00;;;1.33;;
73557;SDS011;61829;53.286;10.434;2024-03-23T13:10:51;7.32;;;1.60;;
73557;SDS011;61829;53.286;10.434;2024-03-23T13:13:36;6.95;;;2.13;;
73557;SDS011;61829;53.286;10.434;2024-03-23T13:16:21;4.18;;;1.40;;
73557;SDS011;61829;53.286;10.434;2024-03-23T13:19:06;6.00;;;1.45;;
73557;SDS011;61829;53.286;10.434;2024-03-23T13:21:51;4.25;;;1.42;;
73557;SDS011;61829;53.286;10.434;2024-03-23T13:24:35;3.83;;;1.27;;
73557;SDS011;61829;53.286;10.434;2024-03-23T13:27:21;1.10;;;0.77;;
73557;SDS011;61829;53.286;10.434;2024-03-23T13:30:06;1.58;;;0.90;;
73557;SDS011;61829;53.286;10.434;2024-03-23T13:32:51;4.10;;;1.05;;
73557;SDS011;61829;53.286;10.434;2024-03-23T13:35:36;1.65;;;0.80;;
73557;SDS011;61829;53.286;10.434;2024-03-23T13:38:21;2.17;;;0.85;;
73557;SDS011;61829;53.286;10.434;2024-03-23T13:41:05;2.58;;;1.17;;
73557;SDS011;61829;53.286;10.434;2024-03-23T13:43:51;1.30;;;0.88;;
73557;SDS011;61829;53.286;10.434;2024-03-23T13:46:36;3.38;;;1.08;;
73557;SDS011;61829;53.286;10.434;2024-03-23T13:52:13;1.17;;;0.73;;
73557;SDS011;61829;53.286;10.434;2024-03-23T13:54:57;4.40;;;0.90;;
73557;SDS011;61829;53.286;10.434;2024-03-23T13:57:41;2.28;;;0.93;;
73557;SDS011;61829;53.286;10.434;2024-03-23T14:00:26;2.92;;;1.10;;
73557;SDS011;61829;53.286;10.434;2024-03-23T14:03:11;1.77;;;0.80;;
73557;SDS011;61829;53.286;10.434;2024-03-23T14:05:59;1.00;;;0.90;;
73557;SDS011;61829;53.286;10.434;2024-03-23T14:08:49;2.63;;;0.57;;
73557;SDS011;61829;53.286;10.434;2024-03-23T14:11:33;4.05;;;0.90;;
73557;SDS011;61829;53.286;10.434;2024-03-23T14:14:19;2.08;;;1.02;;
73557;SDS011;61829;53.286;10.434;2024-03-23T14:17:05;3.35;;;0.80;;
73557;SDS011;61829;53.286;10.434;2024-03-23T14:19:49;2.00;;;0.73;;
73557;SDS011;61829;53.286;10.434;2024-03-23T14:22:34;1.42;;;0.52;;
73557;SDS011;61829;53.286;10.434;2024-03-23T14:25:18;3.03;;;0.80;;
73557;SDS011;61829;53.286;10.434;2024-03-23T14:28:03;1.55;;;0.80;;
73557;SDS011;61829;53.286;10.434;2024-03-23T14:30:48;3.53;;;0.77;;
73557;SDS011;61829;53.286;10.434;2024-03-23T14:33:34;1.27;;;0.70;;
73557;SDS011;61829;53.286;10.434;2024-03-23T14:36:18;1.17;;;0.88;;
73557;SDS011;61829;53.286;10.434;2024-03-23T14:39:02;3.50;;;1.00;;
73557;SDS011;61829;53.286;10.434;2024-03-23T14:41:49;1.88;;;0.82;;
73557;SDS011;61829;53.286;10.434;2024-03-23T14:44:34;2.08;;;0.90;;
73557;SDS011;61829;53.286;10.434;2024-03-23T14:47:19;2.03;;;1.00;;
73557;SDS011;61829;53.286;10.434;2024-03-23T14:50:05;2.50;;;0.82;;
73557;SDS011;61829;53.286;10.434;2024-03-23T14:52:52;2.55;;;1.10;;
73557;SDS011;61829;53.286;10.434;2024-03-23T14:55:37;0.82;;;0.80;;
73557;SDS011;61829;53.286;10.434;2024-03-23T14:58:21;3.30;;;0.88;;
73557;SDS011;61829;53.286;10.434;2024-03-23T15:01:07;3.47;;;1.00;;
73557;SDS011;61829;53.286;10.434;2024-03-23T15:03:56;3.35;;;0.90;;
73557;SDS011;61829;53.286;10.434;2024-03-23T15:06:40;3.60;;;0.82;;
73557;SDS011;61829;53.286;10.434;2024-03-23T15:09:26;2.67;;;0.90;;
73557;SDS011;61829;53.286;10.434;2024-03-23T15:12:10;3.03;;;0.80;;
73557;SDS011;61829;53.286;10.434;2024-03-23T15:14:56;2.20;;;0.73;;
73557;SDS011;61829;53.286;10.434;2024-03-23T15:17:40;0.65;;;0.60;;
73557;SDS011;61829;53.286;10.434;2024-03-23T15:20:29;1.80;;;0.60;;
73557;SDS011;61829;53.286;10.434;2024-03-23T15:23:13;3.80;;;0.95;;
73557;SDS011;61829;53.286;10.434;2024-03-23T15:25:58;2.00;;;0.80;;
73557;SDS011;61829;53.286;10.434;2024-03-23T15:28:47;2.42;;;0.75;;
73557;SDS011;61829;53.286;10.434;2024-03-23T15:31:41;3.17;;;0.82;;
73557;SDS011;61829;53.286;10.434;2024-03-23T15:34:26;2.35;;;0.70;;
73557;SDS011;61829;53.286;10.434;2024-03-23T15:37:11;1.65;;;0.90;;
73557;SDS011;61829;53.286;10.434;2024-03-23T15:39:55;2.20;;;0.98;;
73557;SDS011;61829;53.286;10.434;2024-03-23T15:42:39;5.57;;;1.55;;
73557;SDS011;61829;53.286;10.434;2024-03-23T15:45:24;4.13;;;1.25;;
73557;SDS011;61829;53.286;10.434;2024-03-23T15:48:09;3.60;;;0.90;;
73557;SDS011;61829;53.286;10.434;2024-03-23T15:50:54;2.60;;;0.73;;
73557;SDS011;61829;53.286;10.434;2024-03-23T15:53:40;5.38;;;1.05;;
73557;SDS011;61829;53.286;10.434;2024-03-23T15:56:24;2.47;;;0.90;;
73557;SDS011;61829;53.286;10.434;2024-03-23T15:59:09;3.83;;;0.90;;
73557;SDS011;61829;53.286;10.434;2024-03-23T16:01:53;1.88;;;0.90;;
73557;SDS011;61829;53.286;10.434;2024-03-23T16:04:38;2.13;;;0.90;;
73557;SDS011;61829;53.286;10.434;2024-03-23T16:07:22;2.92;;;0.98;;
73557;SDS011;61829;53.286;10.434;2024-03-23T16:10:08;1.65;;;0.90;;
73557;SDS011;61829;53.286;10.434;2024-03-23T16:12:54;2.40;;;0.98;;
73557;SDS011;61829;53.286;10.434;2024-03-23T16:15:39;3.58;;;1.10;;
73557;SDS011;61829;53.286;10.434;2024-03-23T16:18:24;1.67;;;0.85;;
73557;SDS011;61829;53.286;10.434;2024-03-23T16:21:09;2.47;;;0.93;;
73557;SDS011;61829;53.286;10.434;2024-03-23T16:23:53;4.82;;;1.10;;
73557;SDS011;61829;53.286;10.434;2024-03-23T16:26:38;3.78;;;0.85;;
73557;SDS011;61829;53.286;10.434;2024-03-23T16:29:23;2.47;;;1.15;;
73557;SDS011;61829;53.286;10.434;2024-03-23T16:32:07;1.95;;;0.90;;
73557;SDS011;61829;53.286;10.434;2024-03-23T16:34:52;2.30;;;1.00;;
73557;SDS011;61829;53.286;10.434;2024-03-23T16:37:37;6.28;;;1.20;;
73557;SDS011;61829;53.286;10.434;2024-03-23T16:40:22;3.78;;;1.15;;
73557;SDS011;61829;53.286;10.434;2024-03-23T16:43:08;3.40;;;1.35;;
73557;SDS011;61829;53.286;10.434;2024-03-23T16:45:59;1.67;;;0.73;;
73557;SDS011;61829;53.286;10.434;2024-03-23T16:48:45;1.35;;;0.73;;
73557;SDS011;61829;53.286;10.434;2024-03-23T16:51:30;3.03;;;0.77;;
73557;SDS011;61829;53.286;10.434;2024-03-23T16:54:14;3.70;;;0.90;;
73557;SDS011;61829;53.286;10.434;2024-03-23T16:56:58;0.88;;;0.70;;
73557;SDS011;61829;53.286;10.434;2024-03-23T16:59:43;1.38;;;0.70;;
73557;SDS011;61829;53.286;10.434;2024-03-23T17:02:28;3.70;;;0.80;;
73557;SDS011;61829;53.286;10.434;2024-03-23T17:05:13;1.08;;;0.60;;
73557;SDS011;61829;53.286;10.434;2024-03-23T17:07:58;2.28;;;1.00;;
73557;SDS011;61829;53.286;10.434;2024-03-23T17:10:42;2.45;;;1.00;;
73557;SDS011;61829;53.286;10.434;2024-03-23T17:13:27;3.05;;;0.80;;
73557;SDS011;61829;53.286;10.434;2024-03-23T17:16:12;3.13;;;1.25;;
73557;SDS011;61829;53.286;10.434;2024-03-23T17:18:59;1.88;;;1.00;;
73557;SDS011;61829;53.286;10.434;2024-03-23T17:21:44;2.60;;;1.23;;
73557;SDS011;61829;53.286;10.434;2024-03-23T17:24:28;2.53;;;1.13;;
73557;SDS011;61829;53.286;10.434;2024-03-23T17:27:13;4.25;;;1.30;;
73557;SDS011;61829;53.286;10.434;2024-03-23T17:29:57;4.45;;;1.45;;
73557;SDS011;61829;53.286;10.434;2024-03-23T17:32:45;4.47;;;1.25;;
73557;SDS011;61829;53.286;10.434;2024-03-23T17:35:29;6.40;;;1.52;;
73557;SDS011;61829;53.286;10.434;2024-03-23T17:40:59;3.97;;;1.30;;
73557;SDS011;61829;53.286;10.434;2024-03-23T17:43:44;3.60;;;1.33;;
73557;SDS011;61829;53.286;10.434;2024-03-23T17:46:28;4.93;;;1.50;;